Natchaug River @ Chaplin, Ct

Natchuag River at Chaplin
 Total Drainage Area: 68 sq. miles 
 Drainage Area Controlled by Corps Dams: 0 sq. miles (0%) 
 Warning Flow/Stage: ?? cfs / ?? feet 
 Flood Flow/Stage: ?? cfs / ?? feet 
Date Time
(Eastern)
Stage
(ft)
Flow
(cfs)
CSM
(cfs / sq. mi.)
Jun-25 01:00 am 3.38 143 2.1
Jun-25 12:00 am 3.42 151 2.2
Jun-24 11:00 pm 3.41 149 2.2
Jun-24 10:00 pm 3.37 141 2.1
Jun-24 09:00 pm 3.36 139 2.1
Jun-24 08:00 pm 3.39 145 2.1
Jun-24 07:00 pm 3.42 151 2.2
Jun-24 06:00 pm 3.39 145 2.1
Jun-24 05:00 pm 3.42 151 2.2
Jun-24 04:00 pm 3.43 153 2.3
Jun-24 03:00 pm 3.48 163 2.4
Jun-24 02:00 pm 3.51 169 2.5
Jun-24 01:00 pm 3.53 174 2.6
Jun-24 12:00 pm 3.58 185 2.7
Jun-24 11:00 am 3.58 185 2.7
Jun-24 10:00 am 3.62 194 2.9
Jun-24 09:00 am 3.63 196 2.9
Jun-24 08:00 am 3.67 206 3.0
Jun-24 07:00 am 3.70 213 3.1
Jun-24 06:00 am 3.69 211 3.1
Jun-24 05:00 am 3.72 218 3.2
Jun-24 04:00 am 3.76 228 3.4
Jun-24 03:00 am 3.78 234 3.4
Jun-24 02:00 am 3.82 244 3.6
Jun-24 01:00 am 3.81 242 3.6
Report Generated June 25, 2024 01:20 am